Airfield :
LOGIN :

Register | Disclaimer

   EN    FR    IT 

 










Legend :    VFR   Marginal VFR   IFR   Intensive IFR   Very Intensive IFR
Visi :
Ceiling :
>= 8 km
>= 3000ft
5 to 8 km
1000 to 3000 ft
1500m to 5 km
500 to 1000 ft
800 to 1500m
200 to 500 ft
< 800m
< 200 ft
Symbols :   Thunderstorms  Fog  Heavy snow  Heavy precipitations  Wind > 20 kt
SIGMETs :     Misc.  Thunderstorms  Icing  Turbulence  Mountain Waves  Volcanic Ashes






- Airport Elevation : 1115 ft
- IATA code : GRZ


LOWG - Graz

CURRENT METAR :
  • 291650Z VRB02KT 9999 FEW060 SCT220 04/M06 Q1010 R17/29//95 NOSIG

EXPIRED METARs :
  • 291620Z 18004KT 150V210 9999 FEW060 SCT280 05/M06 Q1010 R17/29//95 NOSIG
  • 291550Z 34003KT 300V360 9999 FEW060 SCT180 BKN280 07/M07 Q1009 R17/29//95 NOSIG
  • 291520Z 28007KT 240V340 9999 FEW060 SCT180 BKN280 08/M07 Q1009 R17/29//95 NOSIG
  • 291450Z 31006KT 240V010 9999 FEW060 SCT300 08/M06 Q1009 R17/29//95 NOSIG
  • 291420Z 32003KT 240V010 9999 FEW060 08/M01 Q1008 R17/29//95 NOSIG

TAF TAF LOWG
Valid from the 29 at 12:00 until the 30 at 12:00 UTC


291115Z 2912/3012 17004KT CAVOK TX06/3012Z TNM05/3006Z
PROB30 2912/2914 0300 FZFG BKN002
PROB30
TEMPO 2913/2916 34007KT
TEMPO 2921/3008 2000 FZBCFG BR
PROB30 2923/3006 0400 FZFG VV001



MET'MAP, your aeronautical weather chart ! - Copyright ORBIFLY December 2007 - Disclaimer

ORBIFLY MET'MAP TEAM :

Programming & Development : Alexandra Zaïnal
Concept & original design : Baudouin d'Aumeries
Assistance for programming : Marc-Olivier Méhu
Technical & hardware support : Manuel Goepfert

Contact : metmap@orbifly.com




SOURCES & CREDITS :

   NOAA